sensor_id;sensor_type;location;lat;lon;timestamp;pressure;altitude;pressure_sealevel;temperature;humidity
54459;BME280;40368;49.350;8.152;2022-11-30T00:00:05;1005.7;;;11.27;64.94
54459;BME280;40368;49.350;8.152;2022-11-30T00:01:08;1005.7;;;11.28;65.07
54459;BME280;40368;49.350;8.152;2022-11-30T00:02:05;1005.7;;;11.29;65.09
54459;BME280;40368;49.350;8.152;2022-11-30T00:03:05;1005.7;;;11.31;64.94
54459;BME280;40368;49.350;8.152;2022-11-30T00:04:05;1005.7;;;11.33;64.7
54459;BME280;40368;49.350;8.152;2022-11-30T00:05:05;1005.7;;;11.35;64.87
54459;BME280;40368;49.350;8.152;2022-11-30T00:06:16;1005.7;;;11.37;64.76
54459;BME280;40368;49.350;8.152;2022-11-30T00:07:18;1005.7;;;11.37;64.61
54459;BME280;40368;49.350;8.152;2022-11-30T00:08:15;1005.7;;;11.39;64.48
54459;BME280;40368;49.350;8.152;2022-11-30T00:09:05;1005.7;;;11.39;64.61
54459;BME280;40368;49.350;8.152;2022-11-30T00:10:05;1005.6;;;11.39;64.52
54459;BME280;40368;49.350;8.152;2022-11-30T00:11:06;1005.6;;;11.37;64.75
54459;BME280;40368;49.350;8.152;2022-11-30T00:12:05;1005.6;;;11.36;64.58
54459;BME280;40368;49.350;8.152;2022-11-30T00:13:05;1005.6;;;11.38;64.5
54459;BME280;40368;49.350;8.152;2022-11-30T00:14:05;1005.6;;;11.4;64.46
54459;BME280;40368;49.350;8.152;2022-11-30T00:15:05;1005.6;;;11.38;64.52
54459;BME280;40368;49.350;8.152;2022-11-30T00:17:05;1005.6;;;11.35;64.43
54459;BME280;40368;49.350;8.152;2022-11-30T00:18:05;1005.6;;;11.36;64.48
54459;BME280;40368;49.350;8.152;2022-11-30T00:19:05;1005.6;;;11.36;64.71
54459;BME280;40368;49.350;8.152;2022-11-30T00:20:05;1005.6;;;11.37;64.43
54459;BME280;40368;49.350;8.152;2022-11-30T00:21:05;1005.6;;;11.37;64.56
54459;BME280;40368;49.350;8.152;2022-11-30T00:22:05;1005.6;;;11.38;64.28
54459;BME280;40368;49.350;8.152;2022-11-30T00:23:05;1005.6;;;11.4;64.4
54459;BME280;40368;49.350;8.152;2022-11-30T00:25:05;1005.6;;;11.37;64.52
54459;BME280;40368;49.350;8.152;2022-11-30T00:26:05;1005.6;;;11.39;64.43
54459;BME280;40368;49.350;8.152;2022-11-30T00:28:05;1005.5;;;11.39;64.29
54459;BME280;40368;49.350;8.152;2022-11-30T00:29:15;1005.6;;;11.38;64.55
54459;BME280;40368;49.350;8.152;2022-11-30T00:30:25;1005.6;;;11.36;64.39
54459;BME280;40368;49.350;8.152;2022-11-30T00:31:18;1005.5;;;11.37;64.43
54459;BME280;40368;49.350;8.152;2022-11-30T00:33:05;1005.6;;;11.36;64.32
54459;BME280;40368;49.350;8.152;2022-11-30T00:34:05;1005.5;;;11.36;64.63
54459;BME280;40368;49.350;8.152;2022-11-30T00:37:05;1005.5;;;11.25;64.8
54459;BME280;40368;49.350;8.152;2022-11-30T00:38:05;1005.5;;;11.23;64.98
54459;BME280;40368;49.350;8.152;2022-11-30T00:39:16;1005.5;;;11.23;64.91
54459;BME280;40368;49.350;8.152;2022-11-30T00:40:15;1005.5;;;11.22;64.84
54459;BME280;40368;49.350;8.152;2022-11-30T00:41:25;1005.5;;;11.21;64.86
54459;BME280;40368;49.350;8.152;2022-11-30T00:42:05;1005.5;;;11.21;64.74
54459;BME280;40368;49.350;8.152;2022-11-30T00:44:05;1005.5;;;11.18;65.04
54459;BME280;40368;49.350;8.152;2022-11-30T00:45:05;1005.5;;;11.16;64.88
54459;BME280;40368;49.350;8.152;2022-11-30T00:46:05;1005.5;;;11.16;65.1
54459;BME280;40368;49.350;8.152;2022-11-30T00:48:05;1005.5;;;11.18;65.18
54459;BME280;40368;49.350;8.152;2022-11-30T00:49:05;1005.5;;;11.16;65.37
54459;BME280;40368;49.350;8.152;2022-11-30T00:52:05;1005.5;;;11.13;65.44
54459;BME280;40368;49.350;8.152;2022-11-30T00:53:15;1005.5;;;11.11;65.3
54459;BME280;40368;49.350;8.152;2022-11-30T00:54:15;1005.5;;;11.14;65.05
54459;BME280;40368;49.350;8.152;2022-11-30T00:55:15;1005.5;;;11.1;65.67
54459;BME280;40368;49.350;8.152;2022-11-30T00:56:15;1005.5;;;11.1;65.58
54459;BME280;40368;49.350;8.152;2022-11-30T00:57:15;1005.5;;;11.1;65.55
54459;BME280;40368;49.350;8.152;2022-11-30T00:58:05;1005.5;;;11.08;65.59
54459;BME280;40368;49.350;8.152;2022-11-30T00:59:05;1005.6;;;11.09;65.28
54459;BME280;40368;49.350;8.152;2022-11-30T01:00:05;1005.6;;;11.11;65.39
54459;BME280;40368;49.350;8.152;2022-11-30T01:01:05;1005.6;;;11.13;65.26
54459;BME280;40368;49.350;8.152;2022-11-30T01:02:05;1005.6;;;11.16;65.06
54459;BME280;40368;49.350;8.152;2022-11-30T01:03:05;1005.6;;;11.19;65.1
54459;BME280;40368;49.350;8.152;2022-11-30T01:04:05;1005.6;;;11.19;65.14
54459;BME280;40368;49.350;8.152;2022-11-30T01:05:05;1005.6;;;11.19;65.23
54459;BME280;40368;49.350;8.152;2022-11-30T01:06:05;1005.6;;;11.18;65.25
54459;BME280;40368;49.350;8.152;2022-11-30T01:07:15;1005.6;;;11.16;65.34
54459;BME280;40368;49.350;8.152;2022-11-30T01:08:15;1005.6;;;11.14;65.52
54459;BME280;40368;49.350;8.152;2022-11-30T01:09:15;1005.6;;;11.14;65.3
54459;BME280;40368;49.350;8.152;2022-11-30T01:12:05;1005.6;;;11.14;65.64
54459;BME280;40368;49.350;8.152;2022-11-30T01:13:05;1005.7;;;11.18;65.38
54459;BME280;40368;49.350;8.152;2022-11-30T01:15:05;1005.7;;;11.17;65.72
54459;BME280;40368;49.350;8.152;2022-11-30T01:16:07;1005.7;;;11.16;65.69
54459;BME280;40368;49.350;8.152;2022-11-30T01:17:15;1005.7;;;11.21;65.4
54459;BME280;40368;49.350;8.152;2022-11-30T01:18:15;1005.7;;;11.24;65.49
54459;BME280;40368;49.350;8.152;2022-11-30T01:19:15;1005.8;;;11.29;65.4
54459;BME280;40368;49.350;8.152;2022-11-30T01:20:06;1005.8;;;11.32;65.34
54459;BME280;40368;49.350;8.152;2022-11-30T01:22:05;1005.7;;;11.34;65.17
54459;BME280;40368;49.350;8.152;2022-11-30T01:24:05;1005.7;;;11.35;65.08
54459;BME280;40368;49.350;8.152;2022-11-30T01:25:05;1005.8;;;11.37;65.13
54459;BME280;40368;49.350;8.152;2022-11-30T01:26:16;1005.8;;;11.34;65.44
54459;BME280;40368;49.350;8.152;2022-11-30T01:27:05;1005.8;;;11.34;65.16
54459;BME280;40368;49.350;8.152;2022-11-30T01:28:15;1005.8;;;11.36;65.19
54459;BME280;40368;49.350;8.152;2022-11-30T01:29:15;1005.8;;;11.36;65.24
54459;BME280;40368;49.350;8.152;2022-11-30T01:30:15;1005.8;;;11.38;64.87
54459;BME280;40368;49.350;8.152;2022-11-30T01:31:06;1005.8;;;11.4;64.99
54459;BME280;40368;49.350;8.152;2022-11-30T01:32:05;1005.8;;;11.41;64.84
54459;BME280;40368;49.350;8.152;2022-11-30T01:33:05;1005.8;;;11.42;64.88
54459;BME280;40368;49.350;8.152;2022-11-30T01:34:05;1005.8;;;11.41;64.77
54459;BME280;40368;49.350;8.152;2022-11-30T01:35:05;1005.8;;;11.41;64.91
54459;BME280;40368;49.350;8.152;2022-11-30T01:36:05;1005.8;;;11.42;64.77
54459;BME280;40368;49.350;8.152;2022-11-30T01:38:05;1005.7;;;11.45;64.66
54459;BME280;40368;49.350;8.152;2022-11-30T01:39:15;1005.8;;;11.46;64.53
54459;BME280;40368;49.350;8.152;2022-11-30T01:40:15;1005.7;;;11.47;64.46
54459;BME280;40368;49.350;8.152;2022-11-30T01:41:23;1005.5;;;11.32;64.21
54459;BME280;40368;49.350;8.152;2022-11-30T01:42:05;1005.7;;;11.49;64.33
54459;BME280;40368;49.350;8.152;2022-11-30T01:43:08;1005.8;;;11.46;64.68
54459;BME280;40368;49.350;8.152;2022-11-30T01:45:05;1005.7;;;11.45;64.77
54459;BME280;40368;49.350;8.152;2022-11-30T01:45:10;1005.7;;;11.45;64.66
54459;BME280;40368;49.350;8.152;2022-11-30T01:46:05;1005.7;;;11.46;64.52
54459;BME280;40368;49.350;8.152;2022-11-30T01:48:06;1005.7;;;11.46;64.55
54459;BME280;40368;49.350;8.152;2022-11-30T01:49:09;1005.7;;;11.44;64.52
54459;BME280;40368;49.350;8.152;2022-11-30T01:50:06;1005.7;;;11.41;64.79
54459;BME280;40368;49.350;8.152;2022-11-30T01:52:06;1005.8;;;11.39;64.68
54459;BME280;40368;49.350;8.152;2022-11-30T01:53:05;1005.7;;;11.39;64.57
54459;BME280;40368;49.350;8.152;2022-11-30T01:54:07;1005.7;;;11.39;64.61
54459;BME280;40368;49.350;8.152;2022-11-30T01:55:08;1005.8;;;11.4;64.52
54459;BME280;40368;49.350;8.152;2022-11-30T01:56:05;1005.8;;;11.4;64.61
54459;BME280;40368;49.350;8.152;2022-11-30T01:57:07;1005.7;;;11.41;64.67
54459;BME280;40368;49.350;8.152;2022-11-30T01:58:06;1005.8;;;11.41;64.59
54459;BME280;40368;49.350;8.152;2022-11-30T02:00:06;1005.8;;;11.41;64.55
54459;BME280;40368;49.350;8.152;2022-11-30T02:01:05;1005.7;;;11.43;64.55
54459;BME280;40368;49.350;8.152;2022-11-30T02:02:05;1005.8;;;11.42;64.58
54459;BME280;40368;49.350;8.152;2022-11-30T02:04:06;1005.8;;;11.41;64.47
54459;BME280;40368;49.350;8.152;2022-11-30T02:05:05;1005.8;;;11.4;64.61
54459;BME280;40368;49.350;8.152;2022-11-30T02:06:05;1005.7;;;11.4;64.71
54459;BME280;40368;49.350;8.152;2022-11-30T02:07:06;1005.8;;;11.39;64.75
54459;BME280;40368;49.350;8.152;2022-11-30T02:08:05;1005.8;;;11.4;64.52
54459;BME280;40368;49.350;8.152;2022-11-30T02:09:05;1005.8;;;11.39;64.95
54459;BME280;40368;49.350;8.152;2022-11-30T02:10:05;1005.8;;;11.37;64.64
54459;BME280;40368;49.350;8.152;2022-11-30T02:12:05;1005.8;;;11.37;64.75
54459;BME280;40368;49.350;8.152;2022-11-30T02:13:10;1005.8;;;11.36;64.62
54459;BME280;40368;49.350;8.152;2022-11-30T02:14:20;1005.7;;;11.34;64.75
54459;BME280;40368;49.350;8.152;2022-11-30T02:15:16;1005.8;;;11.34;64.75
54459;BME280;40368;49.350;8.152;2022-11-30T02:16:17;1005.8;;;11.33;64.46
54459;BME280;40368;49.350;8.152;2022-11-30T02:17:08;1005.8;;;11.32;64.67
54459;BME280;40368;49.350;8.152;2022-11-30T02:20:40;1005.8;;;11.32;64.7
54459;BME280;40368;49.350;8.152;2022-11-30T02:21:06;1005.7;;;11.33;64.76
54459;BME280;40368;49.350;8.152;2022-11-30T02:24:08;1005.7;;;11.33;64.67
54459;BME280;40368;49.350;8.152;2022-11-30T02:25:07;1005.7;;;11.33;64.74
54459;BME280;40368;49.350;8.152;2022-11-30T02:26:21;1005.7;;;11.32;64.65
54459;BME280;40368;49.350;8.152;2022-11-30T02:27:18;1005.7;;;11.32;64.69
54459;BME280;40368;49.350;8.152;2022-11-30T02:29:09;1005.7;;;11.32;64.8
54459;BME280;40368;49.350;8.152;2022-11-30T02:30:25;1005.8;;;11.33;64.74
54459;BME280;40368;49.350;8.152;2022-11-30T02:31:28;1005.7;;;11.32;64.79
54459;BME280;40368;49.350;8.152;2022-11-30T02:32:20;1005.8;;;11.32;64.88
54459;BME280;40368;49.350;8.152;2022-11-30T02:33:15;1005.8;;;11.32;64.83
54459;BME280;40368;49.350;8.152;2022-11-30T02:34:15;1005.7;;;11.31;64.89
54459;BME280;40368;49.350;8.152;2022-11-30T02:36:16;1005.8;;;11.32;64.76
54459;BME280;40368;49.350;8.152;2022-11-30T02:37:25;1005.7;;;11.33;64.76
54459;BME280;40368;49.350;8.152;2022-11-30T02:38:27;1005.8;;;11.32;64.85
54459;BME280;40368;49.350;8.152;2022-11-30T02:39:20;1005.7;;;11.32;64.8
54459;BME280;40368;49.350;8.152;2022-11-30T02:40:16;1005.8;;;11.32;64.88
54459;BME280;40368;49.350;8.152;2022-11-30T02:41:10;1005.7;;;11.32;64.69
54459;BME280;40368;49.350;8.152;2022-11-30T02:42:16;1005.8;;;11.32;64.97
54459;BME280;40368;49.350;8.152;2022-11-30T02:44:05;1005.8;;;11.32;64.88
54459;BME280;40368;49.350;8.152;2022-11-30T02:45:05;1005.7;;;11.31;65
54459;BME280;40368;49.350;8.152;2022-11-30T02:46:06;1005.7;;;11.29;65.18
54459;BME280;40368;49.350;8.152;2022-11-30T02:47:11;1005.8;;;11.3;64.96
54459;BME280;40368;49.350;8.152;2022-11-30T02:48:06;1005.8;;;11.3;64.98
54459;BME280;40368;49.350;8.152;2022-11-30T02:49:05;1005.8;;;11.3;64.9
54459;BME280;40368;49.350;8.152;2022-11-30T02:50:06;1005.8;;;11.3;65.08
54459;BME280;40368;49.350;8.152;2022-11-30T02:51:05;1005.8;;;11.3;65.01
54459;BME280;40368;49.350;8.152;2022-11-30T02:52:15;1005.8;;;11.31;64.98
54459;BME280;40368;49.350;8.152;2022-11-30T02:53:15;1005.8;;;11.31;64.96
54459;BME280;40368;49.350;8.152;2022-11-30T02:54:16;1005.8;;;11.31;64.89
54459;BME280;40368;49.350;8.152;2022-11-30T02:56:05;1005.8;;;11.31;65.08
54459;BME280;40368;49.350;8.152;2022-11-30T02:57:06;1005.7;;;11.31;65.09
54459;BME280;40368;49.350;8.152;2022-11-30T03:00:06;1005.8;;;11.31;65.1
54459;BME280;40368;49.350;8.152;2022-11-30T03:01:05;1005.8;;;11.3;65.16
54459;BME280;40368;49.350;8.152;2022-11-30T03:02:15;1005.8;;;11.3;65.17
54459;BME280;40368;49.350;8.152;2022-11-30T03:03:15;1005.8;;;11.3;65.12
54459;BME280;40368;49.350;8.152;2022-11-30T03:04:15;1005.7;;;11.3;65.07
54459;BME280;40368;49.350;8.152;2022-11-30T03:05:05;1005.8;;;11.29;65.32
54459;BME280;40368;49.350;8.152;2022-11-30T03:06:06;1005.8;;;11.29;65.31
54459;BME280;40368;49.350;8.152;2022-11-30T03:07:05;1005.8;;;11.3;65.23
54459;BME280;40368;49.350;8.152;2022-11-30T03:08:05;1005.8;;;11.31;65.47
54459;BME280;40368;49.350;8.152;2022-11-30T03:09:05;1005.8;;;11.3;65.42
54459;BME280;40368;49.350;8.152;2022-11-30T03:10:05;1005.8;;;11.3;65.57
54459;BME280;40368;49.350;8.152;2022-11-30T03:11:05;1005.8;;;11.31;65.52
54459;BME280;40368;49.350;8.152;2022-11-30T03:12:05;1005.8;;;11.32;65.51
54459;BME280;40368;49.350;8.152;2022-11-30T03:13:05;1005.8;;;11.32;65.66
54459;BME280;40368;49.350;8.152;2022-11-30T03:14:05;1005.9;;;11.33;65.56
54459;BME280;40368;49.350;8.152;2022-11-30T03:15:05;1005.9;;;11.35;65.51
54459;BME280;40368;49.350;8.152;2022-11-30T03:17:05;1005.9;;;11.38;65.3
54459;BME280;40368;49.350;8.152;2022-11-30T03:18:05;1005.8;;;11.41;65.5
54459;BME280;40368;49.350;8.152;2022-11-30T03:19:05;1005.9;;;11.42;65.18
54459;BME280;40368;49.350;8.152;2022-11-30T03:20:05;1005.8;;;11.43;65.32
54459;BME280;40368;49.350;8.152;2022-11-30T03:21:05;1005.9;;;11.44;65.42
54459;BME280;40368;49.350;8.152;2022-11-30T03:22:05;1005.8;;;11.45;65.39
54459;BME280;40368;49.350;8.152;2022-11-30T03:23:05;1005.8;;;11.47;65.38
54459;BME280;40368;49.350;8.152;2022-11-30T03:25:05;1005.8;;;11.47;65.39
54459;BME280;40368;49.350;8.152;2022-11-30T03:26:05;1005.8;;;11.49;65.37
54459;BME280;40368;49.350;8.152;2022-11-30T03:27:05;1005.8;;;11.49;65.36
54459;BME280;40368;49.350;8.152;2022-11-30T03:29:05;1005.8;;;11.51;65.21
54459;BME280;40368;49.350;8.152;2022-11-30T03:30:05;1005.8;;;11.5;65.21
54459;BME280;40368;49.350;8.152;2022-11-30T03:31:05;1005.9;;;11.51;65.24
54459;BME280;40368;49.350;8.152;2022-11-30T03:32:15;1005.9;;;11.52;65.33
54459;BME280;40368;49.350;8.152;2022-11-30T03:33:15;1005.9;;;11.53;65.13
54459;BME280;40368;49.350;8.152;2022-11-30T03:34:25;1005.9;;;11.54;65
54459;BME280;40368;49.350;8.152;2022-11-30T03:36:05;1005.8;;;11.52;65.23
54459;BME280;40368;49.350;8.152;2022-11-30T03:37:25;1005.9;;;11.52;65.23
54459;BME280;40368;49.350;8.152;2022-11-30T03:38:27;1005.9;;;11.52;65.19
54459;BME280;40368;49.350;8.152;2022-11-30T03:39:16;1005.9;;;11.51;65.1
54459;BME280;40368;49.350;8.152;2022-11-30T03:40:15;1005.9;;;11.5;65.16
54459;BME280;40368;49.350;8.152;2022-11-30T03:41:16;1005.9;;;11.5;65.16
54459;BME280;40368;49.350;8.152;2022-11-30T03:42:05;1005.9;;;11.5;65.11
54459;BME280;40368;49.350;8.152;2022-11-30T03:43:05;1005.9;;;11.49;65.08
54459;BME280;40368;49.350;8.152;2022-11-30T03:44:05;1005.9;;;11.49;65
54459;BME280;40368;49.350;8.152;2022-11-30T03:45:05;1005.9;;;11.48;65.04
54459;BME280;40368;49.350;8.152;2022-11-30T03:46:05;1005.9;;;11.49;65.04
54459;BME280;40368;49.350;8.152;2022-11-30T03:47:05;1005.9;;;11.48;65.08
54459;BME280;40368;49.350;8.152;2022-11-30T03:48:05;1005.9;;;11.48;65.04
54459;BME280;40368;49.350;8.152;2022-11-30T03:50:05;1005.9;;;11.49;65.07
54459;BME280;40368;49.350;8.152;2022-11-30T03:51:05;1005.9;;;11.5;64.95
54459;BME280;40368;49.350;8.152;2022-11-30T03:52:05;1005.9;;;11.48;64.99
54459;BME280;40368;49.350;8.152;2022-11-30T03:53:05;1005.9;;;11.48;65.14
54459;BME280;40368;49.350;8.152;2022-11-30T03:54:05;1006;;;11.49;65.33
54459;BME280;40368;49.350;8.152;2022-11-30T03:55:05;1005.9;;;11.48;65.12
54459;BME280;40368;49.350;8.152;2022-11-30T03:56:05;1005.9;;;11.47;65.2
54459;BME280;40368;49.350;8.152;2022-11-30T03:57:05;1006;;;11.48;65.19
54459;BME280;40368;49.350;8.152;2022-11-30T03:59:05;1005.9;;;11.48;65.4
54459;BME280;40368;49.350;8.152;2022-11-30T04:00:15;1005.9;;;11.47;65.3
54459;BME280;40368;49.350;8.152;2022-11-30T04:01:18;1005.9;;;11.48;65.34
54459;BME280;40368;49.350;8.152;2022-11-30T04:02:15;1005.9;;;11.48;65.49
54459;BME280;40368;49.350;8.152;2022-11-30T04:03:05;1005.9;;;11.47;65.51
54459;BME280;40368;49.350;8.152;2022-11-30T04:04:05;1006;;;11.47;65.34
54459;BME280;40368;49.350;8.152;2022-11-30T04:05:05;1005.9;;;11.46;65.4
54459;BME280;40368;49.350;8.152;2022-11-30T04:06:05;1005.9;;;11.46;65.3
54459;BME280;40368;49.350;8.152;2022-11-30T04:07:05;1006;;;11.46;65.45
54459;BME280;40368;49.350;8.152;2022-11-30T04:08:05;1006;;;11.47;65.31
54459;BME280;40368;49.350;8.152;2022-11-30T04:10:05;1006;;;11.48;65.44
54459;BME280;40368;49.350;8.152;2022-11-30T04:11:05;1006;;;11.47;65.44
54459;BME280;40368;49.350;8.152;2022-11-30T04:12:05;1006;;;11.47;65.36
54459;BME280;40368;49.350;8.152;2022-11-30T04:13:05;1006;;;11.48;65.45
54459;BME280;40368;49.350;8.152;2022-11-30T04:14:05;1006;;;11.47;65.27
54459;BME280;40368;49.350;8.152;2022-11-30T04:15:05;1006;;;11.46;65.52
54459;BME280;40368;49.350;8.152;2022-11-30T04:16:05;1006;;;11.45;65.53
54459;BME280;40368;49.350;8.152;2022-11-30T04:17:05;1006;;;11.44;65.33
54459;BME280;40368;49.350;8.152;2022-11-30T04:18:05;1005.9;;;11.42;65.51
54459;BME280;40368;49.350;8.152;2022-11-30T04:19:05;1006;;;11.43;65.72
54459;BME280;40368;49.350;8.152;2022-11-30T04:20:05;1005.9;;;11.42;65.66
54459;BME280;40368;49.350;8.152;2022-11-30T04:21:05;1006;;;11.43;65.57
54459;BME280;40368;49.350;8.152;2022-11-30T04:23:05;1005.9;;;11.42;65.93
54459;BME280;40368;49.350;8.152;2022-11-30T04:24:05;1006;;;11.41;65.91
54459;BME280;40368;49.350;8.152;2022-11-30T04:25:05;1005.9;;;11.42;65.94
54459;BME280;40368;49.350;8.152;2022-11-30T04:26:06;1006;;;11.41;66.04
54459;BME280;40368;49.350;8.152;2022-11-30T04:27:05;1005.9;;;11.41;66.07
54459;BME280;40368;49.350;8.152;2022-11-30T04:28:05;1005.9;;;11.42;66.18
54459;BME280;40368;49.350;8.152;2022-11-30T04:29:05;1005.9;;;11.4;66.47
54459;BME280;40368;49.350;8.152;2022-11-30T04:30:06;1005.9;;;11.4;66.58
54459;BME280;40368;49.350;8.152;2022-11-30T04:31:05;1005.9;;;11.4;66.36
54459;BME280;40368;49.350;8.152;2022-11-30T04:32:05;1005.9;;;11.4;66.59
54459;BME280;40368;49.350;8.152;2022-11-30T04:33:05;1005.9;;;11.39;66.47
54459;BME280;40368;49.350;8.152;2022-11-30T04:34:05;1005.9;;;11.42;66.31
54459;BME280;40368;49.350;8.152;2022-11-30T04:35:05;1005.9;;;11.45;66.39
54459;BME280;40368;49.350;8.152;2022-11-30T04:36:05;1005.9;;;11.48;66.15
54459;BME280;40368;49.350;8.152;2022-11-30T04:37:05;1005.9;;;11.49;66.15
54459;BME280;40368;49.350;8.152;2022-11-30T04:38:05;1005.9;;;11.52;65.97
54459;BME280;40368;49.350;8.152;2022-11-30T04:39:05;1005.9;;;11.53;66.07
54459;BME280;40368;49.350;8.152;2022-11-30T04:40:05;1006;;;11.54;66.09
54459;BME280;40368;49.350;8.152;2022-11-30T04:41:05;1006;;;11.55;65.93
54459;BME280;40368;49.350;8.152;2022-11-30T04:42:05;1006;;;11.55;65.95
54459;BME280;40368;49.350;8.152;2022-11-30T04:43:05;1006;;;11.55;65.84
54459;BME280;40368;49.350;8.152;2022-11-30T04:44:05;1006;;;11.56;65.68
54459;BME280;40368;49.350;8.152;2022-11-30T04:45:05;1006;;;11.57;65.83
54459;BME280;40368;49.350;8.152;2022-11-30T04:46:05;1006;;;11.58;65.6
54459;BME280;40368;49.350;8.152;2022-11-30T04:47:05;1006;;;11.59;65.83
54459;BME280;40368;49.350;8.152;2022-11-30T04:48:05;1005.9;;;11.59;65.66
54459;BME280;40368;49.350;8.152;2022-11-30T04:49:05;1006;;;11.59;65.66
54459;BME280;40368;49.350;8.152;2022-11-30T04:50:05;1006;;;11.61;65.66
54459;BME280;40368;49.350;8.152;2022-11-30T04:51:05;1006;;;11.61;65.71
54459;BME280;40368;49.350;8.152;2022-11-30T04:52:05;1005.9;;;11.6;65.6
54459;BME280;40368;49.350;8.152;2022-11-30T04:53:05;1005.9;;;11.6;65.71
54459;BME280;40368;49.350;8.152;2022-11-30T04:54:05;1005.9;;;11.6;65.66
54459;BME280;40368;49.350;8.152;2022-11-30T04:55:05;1005.9;;;11.6;65.53
54459;BME280;40368;49.350;8.152;2022-11-30T04:57:05;1005.9;;;11.61;65.66
54459;BME280;40368;49.350;8.152;2022-11-30T04:58:05;1006;;;11.61;65.51
54459;BME280;40368;49.350;8.152;2022-11-30T05:00:05;1006;;;11.61;65.55
54459;BME280;40368;49.350;8.152;2022-11-30T05:01:05;1006;;;11.6;65.59
54459;BME280;40368;49.350;8.152;2022-11-30T05:02:05;1006;;;11.6;65.66
54459;BME280;40368;49.350;8.152;2022-11-30T05:03:05;1005.9;;;11.59;66.02
54459;BME280;40368;49.350;8.152;2022-11-30T05:04:05;1006;;;11.58;65.62
54459;BME280;40368;49.350;8.152;2022-11-30T05:05:05;1006;;;11.59;65.59
54459;BME280;40368;49.350;8.152;2022-11-30T05:06:05;1006;;;11.59;65.43
54459;BME280;40368;49.350;8.152;2022-11-30T05:07:05;1006;;;11.59;65.59
54459;BME280;40368;49.350;8.152;2022-11-30T05:08:05;1006;;;11.59;65.42
54459;BME280;40368;49.350;8.152;2022-11-30T05:09:05;1006;;;11.59;65.44
54459;BME280;40368;49.350;8.152;2022-11-30T05:10:06;1006;;;11.58;65.55
54459;BME280;40368;49.350;8.152;2022-11-30T05:11:05;1006;;;11.58;65.43
54459;BME280;40368;49.350;8.152;2022-11-30T05:12:05;1006;;;11.58;65.45
54459;BME280;40368;49.350;8.152;2022-11-30T05:13:05;1006;;;11.58;65.46
54459;BME280;40368;49.350;8.152;2022-11-30T05:14:05;1006.1;;;11.57;65.64
54459;BME280;40368;49.350;8.152;2022-11-30T05:15:05;1006.1;;;11.56;65.47
54459;BME280;40368;49.350;8.152;2022-11-30T05:16:05;1006.1;;;11.55;65.46
54459;BME280;40368;49.350;8.152;2022-11-30T05:17:05;1006.1;;;11.54;65.41
54459;BME280;40368;49.350;8.152;2022-11-30T05:18:05;1006.1;;;11.54;65.54
54459;BME280;40368;49.350;8.152;2022-11-30T05:20:05;1006.1;;;11.54;65.59
54459;BME280;40368;49.350;8.152;2022-11-30T05:21:05;1006.1;;;11.53;65.69
54459;BME280;40368;49.350;8.152;2022-11-30T05:22:05;1006.1;;;11.53;65.49
54459;BME280;40368;49.350;8.152;2022-11-30T05:23:05;1006;;;11.52;65.62
54459;BME280;40368;49.350;8.152;2022-11-30T05:24:05;1006;;;11.51;65.58
54459;BME280;40368;49.350;8.152;2022-11-30T05:25:05;1006;;;11.51;65.85
54459;BME280;40368;49.350;8.152;2022-11-30T05:26:05;1006;;;11.5;65.59
54459;BME280;40368;49.350;8.152;2022-11-30T05:29:05;1006;;;11.5;65.76
54459;BME280;40368;49.350;8.152;2022-11-30T05:30:15;1006.1;;;11.5;65.61
54459;BME280;40368;49.350;8.152;2022-11-30T05:31:15;1006;;;11.49;65.75
54459;BME280;40368;49.350;8.152;2022-11-30T05:32:15;1006.1;;;11.49;65.63
54459;BME280;40368;49.350;8.152;2022-11-30T05:33:05;1006.1;;;11.49;65.67
54459;BME280;40368;49.350;8.152;2022-11-30T05:34:05;1006.1;;;11.49;65.67
54459;BME280;40368;49.350;8.152;2022-11-30T05:35:05;1006.1;;;11.5;65.69
54459;BME280;40368;49.350;8.152;2022-11-30T05:36:05;1006.1;;;11.51;65.7
54459;BME280;40368;49.350;8.152;2022-11-30T05:37:05;1006.1;;;11.5;65.62
54459;BME280;40368;49.350;8.152;2022-11-30T05:38:05;1006.1;;;11.49;65.89
54459;BME280;40368;49.350;8.152;2022-11-30T05:39:05;1006.1;;;11.49;65.92
54459;BME280;40368;49.350;8.152;2022-11-30T05:40:05;1006.1;;;11.51;65.86
54459;BME280;40368;49.350;8.152;2022-11-30T05:41:05;1006.2;;;11.51;66.04
54459;BME280;40368;49.350;8.152;2022-11-30T05:42:05;1006.2;;;11.5;65.82
54459;BME280;40368;49.350;8.152;2022-11-30T05:43:05;1006.1;;;11.5;65.82
54459;BME280;40368;49.350;8.152;2022-11-30T05:44:05;1006.2;;;11.49;65.76
54459;BME280;40368;49.350;8.152;2022-11-30T05:45:05;1006.1;;;11.49;65.87
54459;BME280;40368;49.350;8.152;2022-11-30T05:46:06;1006.2;;;11.48;65.88
54459;BME280;40368;49.350;8.152;2022-11-30T05:47:05;1006.2;;;11.48;65.79
54459;BME280;40368;49.350;8.152;2022-11-30T05:48:05;1006.2;;;11.49;65.64
54459;BME280;40368;49.350;8.152;2022-11-30T05:49:05;1006.2;;;11.47;65.88
54459;BME280;40368;49.350;8.152;2022-11-30T05:50:05;1006.2;;;11.47;65.98
54459;BME280;40368;49.350;8.152;2022-11-30T05:51:05;1006.2;;;11.46;65.89
54459;BME280;40368;49.350;8.152;2022-11-30T05:52:05;1006.2;;;11.46;65.92
54459;BME280;40368;49.350;8.152;2022-11-30T05:53:05;1006.2;;;11.47;65.87
54459;BME280;40368;49.350;8.152;2022-11-30T05:54:05;1006.2;;;11.46;65.89
54459;BME280;40368;49.350;8.152;2022-11-30T05:55:05;1006.2;;;11.47;65.86
54459;BME280;40368;49.350;8.152;2022-11-30T05:58:05;1006.1;;;11.46;65.79
54459;BME280;40368;49.350;8.152;2022-11-30T05:59:05;1006.2;;;11.45;65.9
54459;BME280;40368;49.350;8.152;2022-11-30T06:00:06;1006.2;;;11.45;65.9
54459;BME280;40368;49.350;8.152;2022-11-30T06:01:05;1006.2;;;11.45;65.9
54459;BME280;40368;49.350;8.152;2022-11-30T06:02:05;1006.2;;;11.45;65.95
54459;BME280;40368;49.350;8.152;2022-11-30T06:03:05;1006.2;;;11.44;65.92
54459;BME280;40368;49.350;8.152;2022-11-30T06:04:05;1006.2;;;11.45;65.97
54459;BME280;40368;49.350;8.152;2022-11-30T06:05:05;1006.2;;;11.43;66.09
54459;BME280;40368;49.350;8.152;2022-11-30T06:06:05;1006.2;;;11.43;66.27
54459;BME280;40368;49.350;8.152;2022-11-30T06:07:05;1006.2;;;11.43;66.25
54459;BME280;40368;49.350;8.152;2022-11-30T06:08:05;1006.2;;;11.45;66.22
54459;BME280;40368;49.350;8.152;2022-11-30T06:09:05;1006.2;;;11.46;66.18
54459;BME280;40368;49.350;8.152;2022-11-30T06:10:05;1006.2;;;11.47;66.25
54459;BME280;40368;49.350;8.152;2022-11-30T06:11:05;1006.2;;;11.47;66.45
54459;BME280;40368;49.350;8.152;2022-11-30T06:12:10;1006.2;;;11.5;66.12
54459;BME280;40368;49.350;8.152;2022-11-30T06:13:05;1006.1;;;11.51;66.12
54459;BME280;40368;49.350;8.152;2022-11-30T06:14:05;1006.2;;;11.53;66.1